createdAt,value
2018-07-26T00:01:27.123Z,99.90
2018-07-26T00:03:55.613Z,99.90
2018-07-26T00:06:24.061Z,99.90
2018-07-26T00:08:52.552Z,99.90
2018-07-26T00:11:21.277Z,99.90
2018-07-26T00:13:49.764Z,99.90
2018-07-26T00:16:18.220Z,99.90
2018-07-26T00:18:46.639Z,99.90
2018-07-26T00:21:15.453Z,99.90
2018-07-26T00:23:43.846Z,99.90
2018-07-26T00:26:12.439Z,99.90
2018-07-26T00:28:40.921Z,99.90
2018-07-26T00:31:09.376Z,99.90
2018-07-26T00:33:37.888Z,99.90
2018-07-26T00:36:06.368Z,99.90
2018-07-26T00:38:34.788Z,99.90
2018-07-26T00:41:03.198Z,99.90
2018-07-26T00:43:31.673Z,99.90
2018-07-26T00:46:00.153Z,99.90
2018-07-26T00:48:28.776Z,99.90
2018-07-26T00:50:57.257Z,99.90
2018-07-26T00:53:26.102Z,99.90
2018-07-26T00:55:54.564Z,99.90
2018-07-26T00:58:22.999Z,99.90
2018-07-26T01:00:51.455Z,99.90
2018-07-26T01:03:19.933Z,99.90
2018-07-26T01:05:48.389Z,99.90
2018-07-26T01:08:17.380Z,99.90
2018-07-26T01:10:45.864Z,99.90
2018-07-26T01:13:14.369Z,99.90
2018-07-26T01:15:42.817Z,99.90
2018-07-26T01:18:11.285Z,99.90
2018-07-26T01:23:07.981Z,99.90
2018-07-26T01:25:36.588Z,99.90
2018-07-26T01:28:05.238Z,99.90
2018-07-26T01:30:33.659Z,99.90
2018-07-26T01:33:02.118Z,99.90
2018-07-26T01:35:30.570Z,99.90
2018-07-26T01:37:59.018Z,99.90
2018-07-26T01:40:27.598Z,99.90
2018-07-26T01:43:06.080Z,99.90
2018-07-26T01:45:34.533Z,99.90
2018-07-26T01:48:02.974Z,99.90
2018-07-26T01:50:31.457Z,99.90
2018-07-26T01:53:00.036Z,99.90
2018-07-26T01:55:28.495Z,99.90
2018-07-26T01:57:56.947Z,99.90
2018-07-26T02:00:25.372Z,99.90
2018-07-26T02:02:53.912Z,99.90
2018-07-26T02:05:22.613Z,99.90
2018-07-26T02:07:51.125Z,99.90
2018-07-26T02:12:48.682Z,99.90
2018-07-26T02:15:17.272Z,99.90
2018-07-26T02:17:45.732Z,99.90
2018-07-26T02:20:14.256Z,99.90
2018-07-26T02:22:42.795Z,99.90
2018-07-26T02:25:11.365Z,99.90
2018-07-26T02:27:39.866Z,99.90
2018-07-26T02:30:08.396Z,99.90
2018-07-26T02:32:36.878Z,99.90
2018-07-26T02:35:05.377Z,99.90
2018-07-26T02:37:33.924Z,99.90
2018-07-26T02:40:02.378Z,99.90
2018-07-26T02:42:30.877Z,99.90
2018-07-26T02:44:59.381Z,99.90
2018-07-26T02:47:27.872Z,99.90
2018-07-26T02:49:56.304Z,99.90
2018-07-26T02:52:24.773Z,99.90
2018-07-26T02:54:53.244Z,99.90
2018-07-26T02:57:21.716Z,99.90
2018-07-26T02:59:50.188Z,99.90
2018-07-26T03:02:18.649Z,99.90
2018-07-26T03:04:47.095Z,99.90
2018-07-26T03:07:15.637Z,99.90
2018-07-26T03:09:44.074Z,99.90
2018-07-26T03:12:12.584Z,99.90
2018-07-26T03:14:44.392Z,99.90
2018-07-26T03:17:14.698Z,99.90
2018-07-26T03:19:44.198Z,99.90
2018-07-26T03:22:12.644Z,99.90
2018-07-26T03:24:41.225Z,99.90
2018-07-26T03:27:09.827Z,99.90
2018-07-26T03:29:38.313Z,99.90
2018-07-26T03:32:07.767Z,99.90
2018-07-26T03:34:36.208Z,99.90
2018-07-26T03:37:04.831Z,99.90
2018-07-26T03:39:33.321Z,99.90
2018-07-26T03:42:02.044Z,99.90
2018-07-26T03:44:30.584Z,99.90
2018-07-26T03:47:00.303Z,99.90
2018-07-26T03:49:29.167Z,99.90
2018-07-26T03:51:57.781Z,99.90
2018-07-26T03:54:26.510Z,99.90
2018-07-26T03:56:55.790Z,99.90
2018-07-26T03:59:24.440Z,99.90
2018-07-26T04:01:52.998Z,99.90
2018-07-26T04:04:21.419Z,99.90
2018-07-26T04:06:49.883Z,99.90
2018-07-26T04:09:18.418Z,99.90
2018-07-26T04:11:47.312Z,99.90
2018-07-26T04:16:43.919Z,99.90
2018-07-26T04:19:12.608Z,99.90
2018-07-26T04:21:41.614Z,99.90
2018-07-26T04:24:10.060Z,99.90
2018-07-26T04:26:38.505Z,99.90
2018-07-26T04:29:06.959Z,99.90
2018-07-26T04:31:35.553Z,99.90
2018-07-26T04:34:04.029Z,99.90
2018-07-26T04:36:32.442Z,99.90
2018-07-26T04:39:01.034Z,99.90
2018-07-26T04:41:30.668Z,99.90
2018-07-26T04:43:59.371Z,99.90
2018-07-26T04:46:27.845Z,99.90
2018-07-26T04:48:56.365Z,99.90
2018-07-26T04:51:24.836Z,99.90
2018-07-26T04:53:53.405Z,99.90
2018-07-26T04:56:21.905Z,99.90
2018-07-26T04:58:50.513Z,99.90
2018-07-26T05:01:18.928Z,99.90
2018-07-26T05:03:47.461Z,99.90
2018-07-26T05:06:15.963Z,99.90
2018-07-26T05:08:44.475Z,99.90
2018-07-26T05:11:12.961Z,99.90
2018-07-26T05:13:42.689Z,99.90
2018-07-26T05:18:39.347Z,99.90
2018-07-26T05:21:07.767Z,99.90
2018-07-26T05:23:36.323Z,99.90
2018-07-26T05:28:33.393Z,99.90
2018-07-26T05:31:01.917Z,99.90
2018-07-26T05:33:30.827Z,99.90
2018-07-26T05:35:59.668Z,99.90
2018-07-26T05:38:28.127Z,99.90
2018-07-26T05:40:56.628Z,99.90
2018-07-26T05:43:25.249Z,99.90
2018-07-26T05:45:53.711Z,99.90
2018-07-26T05:48:27.386Z,99.90
2018-07-26T05:51:02.288Z,99.90
2018-07-26T05:53:34.331Z,99.90
2018-07-26T05:56:08.049Z,99.90
2018-07-26T05:58:41.351Z,99.90
2018-07-26T06:01:15.344Z,99.90
2018-07-26T06:08:50.045Z,99.90
2018-07-26T06:11:20.270Z,99.90
2018-07-26T06:13:51.040Z,99.90
2018-07-26T06:16:23.688Z,99.90
2018-07-26T06:18:57.357Z,99.90
2018-07-26T06:21:30.396Z,99.90
2018-07-26T06:26:32.097Z,99.90
2018-07-26T06:29:00.615Z,99.90
2018-07-26T06:31:32.820Z,99.90
2018-07-26T06:34:08.401Z,99.90
2018-07-26T06:36:41.038Z,99.90
2018-07-26T06:39:15.699Z,99.90
2018-07-26T06:41:49.904Z,99.90
2018-07-26T06:44:22.584Z,99.90
2018-07-26T06:46:56.209Z,99.90
2018-07-26T06:49:29.787Z,99.90
2018-07-26T06:52:05.679Z,99.90
2018-07-26T06:54:41.092Z,99.90
2018-07-26T06:57:12.710Z,99.90
2018-07-26T06:59:46.201Z,99.90
2018-07-26T07:02:19.537Z,99.90
2018-07-26T07:04:52.966Z,99.90
2018-07-26T07:07:27.045Z,99.90
2018-07-26T07:10:00.843Z,99.90
2018-07-26T07:12:35.184Z,99.90
2018-07-26T07:15:08.848Z,99.90
2018-07-26T07:17:42.949Z,99.90
2018-07-26T07:20:16.415Z,99.90
2018-07-26T07:22:49.804Z,99.90
2018-07-26T07:25:23.402Z,99.90
2018-07-26T07:27:54.508Z,99.90
2018-07-26T07:30:23.084Z,99.90
2018-07-26T07:32:52.126Z,99.90
2018-07-26T07:35:26.039Z,99.90
2018-07-26T07:38:01.980Z,99.90
2018-07-26T07:40:33.926Z,99.90
2018-07-26T07:43:07.602Z,99.90
2018-07-26T07:45:41.713Z,99.90
2018-07-26T07:48:17.377Z,99.90
2018-07-26T07:50:50.489Z,99.90
2018-07-26T07:55:58.185Z,99.90
2018-07-26T07:58:32.945Z,99.90
2018-07-26T08:01:08.886Z,99.90
2018-07-26T08:03:39.689Z,99.90
2018-07-26T08:06:13.505Z,99.90
2018-07-26T08:08:46.825Z,99.90
2018-07-26T08:11:20.225Z,99.90
2018-07-26T08:13:53.862Z,99.90
2018-07-26T08:16:28.947Z,99.90
2018-07-26T08:19:04.801Z,99.90
2018-07-26T08:21:37.128Z,99.90
2018-07-26T08:24:11.664Z,99.90
2018-07-26T08:26:46.093Z,99.90
2018-07-26T08:29:19.921Z,99.90
2018-07-26T08:31:52.352Z,99.90
2018-07-26T08:34:26.636Z,99.90
2018-07-26T08:37:02.782Z,99.90
2018-07-26T08:39:36.857Z,98.80
2018-07-26T08:42:09.457Z,97.40
2018-07-26T08:44:43.176Z,95.50
2018-07-26T08:47:16.579Z,93.90
2018-07-26T08:49:50.448Z,92.60
2018-07-26T08:52:23.571Z,92.40
2018-07-26T08:54:59.382Z,92.10
2018-07-26T08:57:33.554Z,94.00
2018-07-26T09:00:07.141Z,93.30
2018-07-26T09:02:39.620Z,93.50
2018-07-26T09:07:41.247Z,93.90
2018-07-26T09:10:09.812Z,93.90
2018-07-26T09:12:38.375Z,93.70
2018-07-26T09:17:36.464Z,91.40
2018-07-26T09:20:06.975Z,90.50
2018-07-26T09:22:40.692Z,89.90
2018-07-26T09:25:14.422Z,87.70
2018-07-26T09:27:42.883Z,88.90
2018-07-26T09:30:12.000Z,88.70
2018-07-26T09:32:40.512Z,87.80
2018-07-26T09:35:09.289Z,90.80
2018-07-26T09:37:37.910Z,90.40
2018-07-26T09:40:12.757Z,90.80
2018-07-26T09:42:41.756Z,87.70
2018-07-26T09:47:48.560Z,87.80
2018-07-26T09:50:23.900Z,87.40
2018-07-26T09:52:59.269Z,87.90
2018-07-26T09:55:32.038Z,88.70
2018-07-26T09:58:05.347Z,86.60
2018-07-26T10:00:44.490Z,85.10
2018-07-26T10:03:13.509Z,82.90
2018-07-26T10:05:47.148Z,81.10
2018-07-26T10:08:20.848Z,79.40
2018-07-26T10:10:54.149Z,79.70
2018-07-26T10:13:28.108Z,79.00
2018-07-26T10:16:02.045Z,78.30
2018-07-26T10:18:35.851Z,79.00
2018-07-26T10:23:45.249Z,77.20
2018-07-26T10:26:19.086Z,78.40
2018-07-26T10:28:52.289Z,78.20
2018-07-26T10:31:27.599Z,76.50
2018-07-26T10:34:01.263Z,77.00
2018-07-26T10:36:35.749Z,77.90
2018-07-26T10:39:11.044Z,76.20
2018-07-26T10:41:42.431Z,76.60
2018-07-26T10:44:17.523Z,76.00
2018-07-26T10:46:49.997Z,75.20
2018-07-26T10:49:24.013Z,73.60
2018-07-26T10:51:59.001Z,73.70
2018-07-26T10:54:33.836Z,72.70
2018-07-26T10:57:06.353Z,73.50
2018-07-26T10:59:39.566Z,72.90
2018-07-26T11:02:13.103Z,70.00
2018-07-26T11:07:19.628Z,72.10
2018-07-26T11:12:20.996Z,71.50
2018-07-26T11:14:49.786Z,70.30
2018-07-26T11:17:22.464Z,69.80
2018-07-26T11:19:55.904Z,72.20
2018-07-26T11:22:29.305Z,70.30
2018-07-26T11:25:03.601Z,70.30
2018-07-26T11:27:36.812Z,70.10
2018-07-26T11:30:10.831Z,69.40
2018-07-26T11:32:44.099Z,70.40
2018-07-26T11:35:17.817Z,69.00
2018-07-26T11:37:48.873Z,68.70
2018-07-26T11:40:31.631Z,69.20
2018-07-26T11:43:04.810Z,69.20
2018-07-26T11:45:35.606Z,69.60
2018-07-26T11:48:09.552Z,68.30
2018-07-26T11:50:43.578Z,68.90
2018-07-26T11:53:18.784Z,68.30
2018-07-26T11:55:51.141Z,68.70
2018-07-26T11:58:24.984Z,70.30
2018-07-26T12:00:57.988Z,69.50
2018-07-26T12:03:30.993Z,68.30
2018-07-26T12:06:07.043Z,68.90
2018-07-26T12:13:49.318Z,68.90
2018-07-26T12:18:57.077Z,70.10
2018-07-26T12:21:31.288Z,70.20
2018-07-26T12:24:05.445Z,70.10
2018-07-26T12:26:38.872Z,70.90
2018-07-26T12:29:13.360Z,71.60
2018-07-26T12:31:46.754Z,70.00
2018-07-26T12:34:23.559Z,70.60
2018-07-26T12:36:56.531Z,69.90
2018-07-26T12:39:28.701Z,69.10
2018-07-26T12:42:01.801Z,69.60
2018-07-26T12:44:35.409Z,69.00
2018-07-26T12:47:09.117Z,67.60
2018-07-26T12:49:43.088Z,67.60
2018-07-26T12:52:24.125Z,68.60
2018-07-26T12:54:58.133Z,67.90
2018-07-26T12:57:27.851Z,68.30
2018-07-26T13:00:00.671Z,67.90
2018-07-26T13:02:34.857Z,66.70
2018-07-26T13:05:09.677Z,64.60
2018-07-26T13:07:43.944Z,64.10
2018-07-26T13:13:05.595Z,63.60
2018-07-26T13:15:39.193Z,63.80
2018-07-26T13:18:12.524Z,63.80
2018-07-26T13:23:19.921Z,62.90
2018-07-26T13:25:55.855Z,63.20
2018-07-26T13:28:32.121Z,62.30
2018-07-26T13:31:04.713Z,62.30
2018-07-26T13:33:37.499Z,60.30
2018-07-26T13:36:10.905Z,60.90
2018-07-26T13:38:44.100Z,61.00
2018-07-26T13:41:20.688Z,61.20
2018-07-26T13:46:26.316Z,60.60
2018-07-26T13:48:59.795Z,63.40
2018-07-26T13:51:37.418Z,65.30
2018-07-26T13:54:12.883Z,65.80
2018-07-26T13:56:42.087Z,65.20
2018-07-26T13:59:15.518Z,64.40
2018-07-26T14:01:50.096Z,64.60
2018-07-26T14:04:23.468Z,64.30
2018-07-26T14:06:56.702Z,65.30
2018-07-26T14:09:29.912Z,65.10
2018-07-26T14:12:03.423Z,64.60
2018-07-26T14:14:35.666Z,65.00
2018-07-26T14:17:04.946Z,63.40
2018-07-26T14:19:34.632Z,60.80
2018-07-26T14:22:07.800Z,60.30
2018-07-26T14:24:39.589Z,60.10
2018-07-26T14:27:13.405Z,60.00
2018-07-26T14:29:47.082Z,59.10
2018-07-26T14:32:21.089Z,59.60
2018-07-26T14:34:54.337Z,59.60
2018-07-26T14:37:27.481Z,59.10
2018-07-26T14:45:03.110Z,58.30
2018-07-26T14:47:31.758Z,58.60
2018-07-26T14:50:03.792Z,58.10
2018-07-26T14:52:37.697Z,57.90
2018-07-26T14:55:11.225Z,57.00
2018-07-26T14:57:46.711Z,56.50
2018-07-26T15:00:20.045Z,57.80
2018-07-26T15:02:53.675Z,58.60
2018-07-26T15:05:29.332Z,59.00
2018-07-26T15:08:01.657Z,58.30
2018-07-26T15:10:36.958Z,59.10
2018-07-26T15:13:09.393Z,58.50
2018-07-26T15:15:42.910Z,58.50
2018-07-26T15:18:17.439Z,58.60
2018-07-26T15:20:51.796Z,58.20
2018-07-26T15:23:27.490Z,58.40
2018-07-26T15:25:59.811Z,58.20
2018-07-26T15:28:34.777Z,57.20
2018-07-26T15:31:07.254Z,58.00
2018-07-26T15:33:41.268Z,58.00
2018-07-26T15:36:18.522Z,58.40
2018-07-26T15:38:50.888Z,58.80
2018-07-26T15:41:23.678Z,59.40
2018-07-26T15:44:28.739Z,59.70
2018-07-26T15:47:02.933Z,59.70
2018-07-26T15:49:36.119Z,59.40
2018-07-26T15:52:08.929Z,60.40
2018-07-26T15:54:43.992Z,60.10
2018-07-26T15:57:12.649Z,61.00
2018-07-26T16:02:09.388Z,61.50
2018-07-26T16:04:37.932Z,60.40
2018-07-26T16:07:07.266Z,60.80
2018-07-26T16:09:36.744Z,60.90
2018-07-26T16:12:05.299Z,61.70
2018-07-26T16:14:33.764Z,61.70
2018-07-26T16:17:02.331Z,61.10
2018-07-26T16:19:30.799Z,61.80
2018-07-26T16:21:59.293Z,61.60
2018-07-26T16:24:27.788Z,61.70
2018-07-26T16:26:56.307Z,65.80
2018-07-26T16:29:24.852Z,68.30
2018-07-26T16:31:53.359Z,68.90
2018-07-26T16:34:21.950Z,70.00
2018-07-26T16:36:51.181Z,70.40
2018-07-26T16:39:19.651Z,71.00
2018-07-26T16:41:48.197Z,71.20
2018-07-26T16:44:16.768Z,71.70
2018-07-26T16:46:45.362Z,72.00
2018-07-26T16:49:13.874Z,72.20
2018-07-26T16:51:42.424Z,72.70
2018-07-26T16:54:10.886Z,73.50
2018-07-26T16:56:39.507Z,73.70
2018-07-26T16:59:08.170Z,74.20
2018-07-26T17:01:36.698Z,74.70
2018-07-26T17:04:05.209Z,75.20
2018-07-26T17:06:33.758Z,75.10
2018-07-26T17:09:02.711Z,75.50
2018-07-26T17:11:31.219Z,76.10
2018-07-26T17:13:59.757Z,76.10
2018-07-26T17:16:28.727Z,78.70
2018-07-26T17:18:57.278Z,82.30
2018-07-26T17:21:26.356Z,84.30
2018-07-26T17:23:54.921Z,85.70
2018-07-26T17:26:24.397Z,86.70
2018-07-26T17:28:52.977Z,87.30
2018-07-26T17:31:21.520Z,87.00
2018-07-26T17:33:50.000Z,87.70
2018-07-26T17:36:18.585Z,88.20
2018-07-26T17:38:47.246Z,86.00
2018-07-26T17:41:15.757Z,86.20
2018-07-26T17:43:44.727Z,86.50
2018-07-26T17:46:13.256Z,85.60
2018-07-26T17:48:41.782Z,87.00
2018-07-26T17:51:10.231Z,87.00
2018-07-26T17:53:38.733Z,87.80
2018-07-26T17:56:07.331Z,89.10
2018-07-26T17:58:35.755Z,88.00
2018-07-26T18:01:04.337Z,88.20
2018-07-26T18:03:33.231Z,88.50
2018-07-26T18:06:02.188Z,88.00
2018-07-26T18:08:30.656Z,88.60
2018-07-26T18:10:59.233Z,88.90
2018-07-26T18:13:27.788Z,88.50
2018-07-26T18:15:56.368Z,89.00
2018-07-26T18:18:24.852Z,89.90
2018-07-26T18:20:53.382Z,90.20
2018-07-26T18:23:22.012Z,90.50
2018-07-26T18:25:50.532Z,90.80
2018-07-26T18:28:19.062Z,90.90
2018-07-26T18:30:47.521Z,90.90
2018-07-26T18:33:16.049Z,91.00
2018-07-26T18:35:44.630Z,91.20
2018-07-26T18:38:13.215Z,91.40
2018-07-26T18:40:42.100Z,91.50
2018-07-26T18:43:10.867Z,91.70
2018-07-26T18:45:39.563Z,92.20
2018-07-26T18:48:08.066Z,92.40
2018-07-26T18:50:36.584Z,92.60
2018-07-26T18:53:05.057Z,92.80
2018-07-26T18:55:33.621Z,92.90
2018-07-26T18:58:02.210Z,93.10
2018-07-26T19:02:58.870Z,93.10
2018-07-26T19:07:55.520Z,93.70
2018-07-26T19:10:24.017Z,94.10
2018-07-26T19:12:52.496Z,94.40
2018-07-26T19:15:21.023Z,94.80
2018-07-26T19:17:49.508Z,95.10
2018-07-26T19:20:17.957Z,95.60
2018-07-26T19:22:46.469Z,96.10
2018-07-26T19:25:14.947Z,96.50
2018-07-26T19:27:43.811Z,96.90
2018-07-26T19:30:13.888Z,97.60
2018-07-26T19:32:42.500Z,98.00
2018-07-26T19:35:11.536Z,98.60
2018-07-26T19:37:40.227Z,98.90
2018-07-26T19:40:10.490Z,99.40
2018-07-26T19:42:39.313Z,99.90
2018-07-26T19:45:09.039Z,99.90
2018-07-26T19:47:37.911Z,99.90
2018-07-26T19:50:06.430Z,99.90
2018-07-26T19:52:34.941Z,99.90
2018-07-26T19:55:03.659Z,99.90
2018-07-26T19:57:32.192Z,99.90
2018-07-26T20:00:00.678Z,99.90
2018-07-26T20:02:29.151Z,99.90
2018-07-26T20:04:58.019Z,99.90
2018-07-26T20:07:27.124Z,99.90
2018-07-26T20:09:55.596Z,99.90
2018-07-26T20:12:24.140Z,99.90
2018-07-26T20:14:52.835Z,99.90
2018-07-26T20:17:21.392Z,99.90
2018-07-26T20:19:49.923Z,99.90
2018-07-26T20:22:18.490Z,99.90
2018-07-26T20:24:46.969Z,99.90
2018-07-26T20:27:15.425Z,99.90
2018-07-26T20:29:43.967Z,99.90
2018-07-26T20:32:13.270Z,99.90
2018-07-26T20:34:42.021Z,99.90
2018-07-26T20:37:10.689Z,99.90
2018-07-26T20:39:39.347Z,99.90
2018-07-26T20:42:07.987Z,99.90
2018-07-26T20:44:36.470Z,99.90
2018-07-26T20:47:05.133Z,99.90
2018-07-26T20:49:33.671Z,99.90
2018-07-26T20:52:02.230Z,99.90
2018-07-26T20:54:30.864Z,99.90
2018-07-26T20:56:59.378Z,99.90
2018-07-26T20:59:27.935Z,99.90
2018-07-26T21:01:56.473Z,99.90
2018-07-26T21:04:25.155Z,99.90
2018-07-26T21:06:53.615Z,99.90
2018-07-26T21:09:22.181Z,99.90
2018-07-26T21:11:50.608Z,99.90
2018-07-26T21:14:19.126Z,99.90
2018-07-26T21:16:47.638Z,99.90
2018-07-26T21:19:16.168Z,99.90
2018-07-26T21:21:45.509Z,99.90
2018-07-26T21:24:14.024Z,99.90
2018-07-26T21:26:42.517Z,99.90
2018-07-26T21:29:11.245Z,99.90
2018-07-26T21:31:39.757Z,99.90
2018-07-26T21:34:08.501Z,99.90
2018-07-26T21:36:37.352Z,99.90
2018-07-26T21:39:08.514Z,99.90
2018-07-26T21:41:37.575Z,99.90
2018-07-26T21:44:06.104Z,99.90
2018-07-26T21:46:34.562Z,99.90
2018-07-26T21:49:03.001Z,99.90
2018-07-26T21:51:31.509Z,99.90
2018-07-26T21:54:00.033Z,99.90
2018-07-26T21:56:28.503Z,99.90
2018-07-26T21:58:56.988Z,99.90
2018-07-26T22:01:25.448Z,99.90
2018-07-26T22:03:53.948Z,99.90
2018-07-26T22:06:22.367Z,99.90
2018-07-26T22:08:50.852Z,99.90
2018-07-26T22:11:19.341Z,99.90
2018-07-26T22:16:16.395Z,99.90
2018-07-26T22:18:44.844Z,99.90
2018-07-26T22:21:13.476Z,99.90
2018-07-26T22:23:42.043Z,99.90
2018-07-26T22:26:10.557Z,99.90
2018-07-26T22:28:39.008Z,99.90
2018-07-26T22:31:07.535Z,99.90
2018-07-26T22:33:36.042Z,99.90
2018-07-26T22:36:04.589Z,99.90
2018-07-26T22:38:33.060Z,99.90
2018-07-26T22:41:01.655Z,99.90
2018-07-26T22:43:30.157Z,99.90
2018-07-26T22:45:58.604Z,99.90
2018-07-26T22:48:27.142Z,99.90
2018-07-26T22:50:55.787Z,99.90
2018-07-26T22:53:24.250Z,99.90
2018-07-26T22:55:52.743Z,99.90
2018-07-26T22:58:21.239Z,99.90
2018-07-26T23:00:49.677Z,99.90
2018-07-26T23:03:18.250Z,99.90
2018-07-26T23:05:46.710Z,99.90
2018-07-26T23:08:15.747Z,99.90
2018-07-26T23:10:44.248Z,99.90
2018-07-26T23:13:12.713Z,99.90
2018-07-26T23:15:41.365Z,99.90
2018-07-26T23:18:09.809Z,99.90
2018-07-26T23:20:38.280Z,99.90
2018-07-26T23:23:06.872Z,99.90
2018-07-26T23:25:35.393Z,99.90
2018-07-26T23:28:03.920Z,99.90
2018-07-26T23:30:32.385Z,99.90
2018-07-26T23:33:00.887Z,99.90
2018-07-26T23:35:29.337Z,99.90
2018-07-26T23:37:57.824Z,99.90
2018-07-26T23:40:26.478Z,99.90
2018-07-26T23:42:55.168Z,99.90
2018-07-26T23:45:23.742Z,99.90
2018-07-26T23:47:52.287Z,99.90
2018-07-26T23:50:20.745Z,99.90
2018-07-26T23:52:49.200Z,99.90
2018-07-26T23:55:17.734Z,99.90
2018-07-26T23:57:46.378Z,99.90
